sensor_id;sensor_type;location;lat;lon;timestamp;P1;durP1;ratioP1;P2;durP2;ratioP2
50779;SDS011;36748;37.428;-121.972;2023-03-21T00:01:20;5.80;;;1.63;;
50779;SDS011;36748;37.428;-121.972;2023-03-21T00:03:47;1.58;;;1.05;;
50779;SDS011;36748;37.428;-121.972;2023-03-21T00:06:13;4.97;;;1.40;;
50779;SDS011;36748;37.428;-121.972;2023-03-21T00:08:40;5.35;;;1.35;;
50779;SDS011;36748;37.428;-121.972;2023-03-21T00:11:07;3.10;;;1.30;;
50779;SDS011;36748;37.428;-121.972;2023-03-21T00:13:35;3.92;;;1.60;;
50779;SDS011;36748;37.428;-121.972;2023-03-21T00:16:03;3.33;;;1.50;;
50779;SDS011;36748;37.428;-121.972;2023-03-21T00:18:34;3.72;;;1.38;;
50779;SDS011;36748;37.428;-121.972;2023-03-21T00:21:06;2.53;;;1.20;;
50779;SDS011;36748;37.428;-121.972;2023-03-21T00:23:33;2.50;;;1.15;;
50779;SDS011;36748;37.428;-121.972;2023-03-21T00:26:00;4.32;;;1.58;;
50779;SDS011;36748;37.428;-121.972;2023-03-21T00:28:27;4.03;;;1.17;;
50779;SDS011;36748;37.428;-121.972;2023-03-21T00:30:56;5.22;;;1.48;;
50779;SDS011;36748;37.428;-121.972;2023-03-21T00:33:24;4.80;;;1.45;;
50779;SDS011;36748;37.428;-121.972;2023-03-21T00:35:50;3.35;;;1.38;;
50779;SDS011;36748;37.428;-121.972;2023-03-21T00:38:18;3.38;;;1.30;;
50779;SDS011;36748;37.428;-121.972;2023-03-21T00:40:45;2.88;;;1.20;;
50779;SDS011;36748;37.428;-121.972;2023-03-21T00:43:11;3.42;;;1.38;;
50779;SDS011;36748;37.428;-121.972;2023-03-21T00:45:42;3.35;;;1.30;;
50779;SDS011;36748;37.428;-121.972;2023-03-21T00:48:09;2.22;;;1.38;;
50779;SDS011;36748;37.428;-121.972;2023-03-21T00:50:35;2.88;;;1.30;;
50779;SDS011;36748;37.428;-121.972;2023-03-21T00:53:04;2.47;;;1.33;;
50779;SDS011;36748;37.428;-121.972;2023-03-21T00:55:31;6.10;;;2.00;;
50779;SDS011;36748;37.428;-121.972;2023-03-21T00:57:57;3.92;;;1.60;;
50779;SDS011;36748;37.428;-121.972;2023-03-21T01:00:24;2.83;;;1.20;;
50779;SDS011;36748;37.428;-121.972;2023-03-21T01:02:50;4.72;;;1.48;;
50779;SDS011;36748;37.428;-121.972;2023-03-21T01:05:23;6.28;;;1.40;;
50779;SDS011;36748;37.428;-121.972;2023-03-21T01:08:10;4.03;;;1.63;;
50779;SDS011;36748;37.428;-121.972;2023-03-21T01:10:39;5.93;;;1.50;;
50779;SDS011;36748;37.428;-121.972;2023-03-21T01:13:07;9.88;;;1.63;;
50779;SDS011;36748;37.428;-121.972;2023-03-21T01:15:34;3.17;;;1.40;;
50779;SDS011;36748;37.428;-121.972;2023-03-21T01:18:01;4.72;;;1.60;;
50779;SDS011;36748;37.428;-121.972;2023-03-21T01:20:28;5.25;;;1.20;;
50779;SDS011;36748;37.428;-121.972;2023-03-21T01:22:54;5.13;;;1.50;;
50779;SDS011;36748;37.428;-121.972;2023-03-21T01:25:20;5.55;;;1.48;;
50779;SDS011;36748;37.428;-121.972;2023-03-21T01:27:47;5.90;;;1.55;;
50779;SDS011;36748;37.428;-121.972;2023-03-21T01:30:13;4.38;;;1.40;;
50779;SDS011;36748;37.428;-121.972;2023-03-21T01:32:39;4.22;;;1.50;;
50779;SDS011;36748;37.428;-121.972;2023-03-21T01:35:06;4.70;;;1.25;;
50779;SDS011;36748;37.428;-121.972;2023-03-21T01:37:32;7.15;;;1.88;;
50779;SDS011;36748;37.428;-121.972;2023-03-21T01:39:59;6.68;;;1.60;;
50779;SDS011;36748;37.428;-121.972;2023-03-21T01:42:25;4.47;;;1.55;;
50779;SDS011;36748;37.428;-121.972;2023-03-21T01:44:59;7.15;;;1.35;;
50779;SDS011;36748;37.428;-121.972;2023-03-21T01:47:28;5.45;;;1.65;;
50779;SDS011;36748;37.428;-121.972;2023-03-21T01:49:55;4.35;;;1.30;;
50779;SDS011;36748;37.428;-121.972;2023-03-21T01:52:28;4.03;;;1.17;;
50779;SDS011;36748;37.428;-121.972;2023-03-21T01:54:57;4.45;;;1.50;;
50779;SDS011;36748;37.428;-121.972;2023-03-21T01:57:32;10.10;;;1.70;;
50779;SDS011;36748;37.428;-121.972;2023-03-21T02:00:04;6.65;;;1.17;;
50779;SDS011;36748;37.428;-121.972;2023-03-21T02:02:41;5.10;;;1.23;;
50779;SDS011;36748;37.428;-121.972;2023-03-21T02:08:05;6.75;;;1.70;;
50779;SDS011;36748;37.428;-121.972;2023-03-21T02:10:31;3.72;;;1.50;;
50779;SDS011;36748;37.428;-121.972;2023-03-21T02:12:59;4.95;;;1.60;;
50779;SDS011;36748;37.428;-121.972;2023-03-21T02:15:38;3.92;;;1.50;;
50779;SDS011;36748;37.428;-121.972;2023-03-21T02:18:09;4.82;;;1.55;;
50779;SDS011;36748;37.428;-121.972;2023-03-21T02:33:01;3.60;;;1.40;;
50779;SDS011;36748;37.428;-121.972;2023-03-21T02:37:48;4.30;;;1.60;;
50779;SDS011;36748;37.428;-121.972;2023-03-21T02:40:32;5.45;;;1.67;;
50779;SDS011;36748;37.428;-121.972;2023-03-21T02:45:32;3.70;;;1.50;;
50779;SDS011;36748;37.428;-121.972;2023-03-21T02:48:13;10.25;;;2.08;;
50779;SDS011;36748;37.428;-121.972;2023-03-21T02:53:08;4.82;;;1.85;;
50779;SDS011;36748;37.428;-121.972;2023-03-21T02:55:36;7.45;;;1.80;;
50779;SDS011;36748;37.428;-121.972;2023-03-21T02:58:02;4.60;;;1.70;;
50779;SDS011;36748;37.428;-121.972;2023-03-21T03:00:31;5.85;;;1.50;;
50779;SDS011;36748;37.428;-121.972;2023-03-21T03:02:58;5.40;;;1.70;;
50779;SDS011;36748;37.428;-121.972;2023-03-21T03:05:25;3.63;;;1.55;;
50779;SDS011;36748;37.428;-121.972;2023-03-21T03:16:12;2.67;;;1.27;;
50779;SDS011;36748;37.428;-121.972;2023-03-21T03:24:01;2.22;;;1.38;;
50779;SDS011;36748;37.428;-121.972;2023-03-21T03:29:31;4.60;;;1.60;;
50779;SDS011;36748;37.428;-121.972;2023-03-21T03:32:06;2.80;;;1.48;;
50779;SDS011;36748;37.428;-121.972;2023-03-21T03:34:38;3.70;;;1.48;;
50779;SDS011;36748;37.428;-121.972;2023-03-21T03:37:07;2.95;;;1.52;;
50779;SDS011;36748;37.428;-121.972;2023-03-21T03:39:39;1.92;;;1.42;;
50779;SDS011;36748;37.428;-121.972;2023-03-21T03:42:18;4.60;;;1.65;;
50779;SDS011;36748;37.428;-121.972;2023-03-21T03:44:47;2.03;;;1.30;;
50779;SDS011;36748;37.428;-121.972;2023-03-21T03:47:26;2.58;;;1.58;;
50779;SDS011;36748;37.428;-121.972;2023-03-21T03:53:02;4.05;;;1.50;;
50779;SDS011;36748;37.428;-121.972;2023-03-21T03:55:50;2.85;;;1.10;;
50779;SDS011;36748;37.428;-121.972;2023-03-21T03:58:19;2.53;;;1.30;;
50779;SDS011;36748;37.428;-121.972;2023-03-21T04:00:45;2.72;;;1.30;;
50779;SDS011;36748;37.428;-121.972;2023-03-21T04:03:13;2.60;;;1.20;;
50779;SDS011;36748;37.428;-121.972;2023-03-21T04:05:39;3.50;;;1.60;;
50779;SDS011;36748;37.428;-121.972;2023-03-21T04:08:07;3.08;;;1.30;;
50779;SDS011;36748;37.428;-121.972;2023-03-21T04:10:33;2.50;;;1.42;;
50779;SDS011;36748;37.428;-121.972;2023-03-21T04:13:00;5.75;;;1.45;;
50779;SDS011;36748;37.428;-121.972;2023-03-21T04:15:26;2.63;;;1.45;;
50779;SDS011;36748;37.428;-121.972;2023-03-21T04:17:52;3.88;;;1.40;;
50779;SDS011;36748;37.428;-121.972;2023-03-21T04:20:18;4.68;;;1.85;;
50779;SDS011;36748;37.428;-121.972;2023-03-21T04:22:45;3.70;;;1.67;;
50779;SDS011;36748;37.428;-121.972;2023-03-21T04:25:11;4.30;;;1.20;;
50779;SDS011;36748;37.428;-121.972;2023-03-21T04:27:37;2.97;;;1.15;;
50779;SDS011;36748;37.428;-121.972;2023-03-21T04:30:04;4.53;;;1.50;;
50779;SDS011;36748;37.428;-121.972;2023-03-21T04:32:31;1.92;;;1.25;;
50779;SDS011;36748;37.428;-121.972;2023-03-21T04:35:04;2.05;;;1.13;;
50779;SDS011;36748;37.428;-121.972;2023-03-21T04:37:35;3.03;;;1.27;;
50779;SDS011;36748;37.428;-121.972;2023-03-21T04:40:03;3.72;;;1.45;;
50779;SDS011;36748;37.428;-121.972;2023-03-21T04:42:32;2.47;;;1.38;;
50779;SDS011;36748;37.428;-121.972;2023-03-21T04:44:59;4.63;;;1.40;;
50779;SDS011;36748;37.428;-121.972;2023-03-21T04:47:26;2.13;;;1.45;;
50779;SDS011;36748;37.428;-121.972;2023-03-21T04:49:52;2.28;;;1.13;;
50779;SDS011;36748;37.428;-121.972;2023-03-21T04:52:18;3.00;;;1.35;;
50779;SDS011;36748;37.428;-121.972;2023-03-21T04:54:45;2.05;;;1.05;;
50779;SDS011;36748;37.428;-121.972;2023-03-21T04:57:11;2.03;;;0.95;;
50779;SDS011;36748;37.428;-121.972;2023-03-21T04:59:38;1.35;;;1.13;;
50779;SDS011;36748;37.428;-121.972;2023-03-21T05:02:04;2.53;;;1.20;;
50779;SDS011;36748;37.428;-121.972;2023-03-21T05:04:30;2.00;;;1.15;;
50779;SDS011;36748;37.428;-121.972;2023-03-21T05:06:57;2.05;;;1.10;;
50779;SDS011;36748;37.428;-121.972;2023-03-21T05:09:23;5.60;;;1.17;;
50779;SDS011;36748;37.428;-121.972;2023-03-21T05:11:50;3.13;;;1.45;;
50779;SDS011;36748;37.428;-121.972;2023-03-21T05:14:18;2.35;;;1.25;;
50779;SDS011;36748;37.428;-121.972;2023-03-21T05:16:46;2.00;;;1.17;;
50779;SDS011;36748;37.428;-121.972;2023-03-21T05:19:17;2.47;;;1.08;;
50779;SDS011;36748;37.428;-121.972;2023-03-21T05:21:48;2.22;;;1.30;;
50779;SDS011;36748;37.428;-121.972;2023-03-21T05:24:16;1.20;;;0.80;;
50779;SDS011;36748;37.428;-121.972;2023-03-21T05:26:44;1.95;;;1.05;;
50779;SDS011;36748;37.428;-121.972;2023-03-21T05:29:17;1.40;;;1.08;;
50779;SDS011;36748;37.428;-121.972;2023-03-21T05:31:44;1.88;;;1.00;;
50779;SDS011;36748;37.428;-121.972;2023-03-21T05:34:11;2.67;;;1.40;;
50779;SDS011;36748;37.428;-121.972;2023-03-21T05:36:38;2.78;;;1.17;;
50779;SDS011;36748;37.428;-121.972;2023-03-21T05:39:04;2.90;;;1.35;;
50779;SDS011;36748;37.428;-121.972;2023-03-21T05:41:31;2.30;;;1.00;;
50779;SDS011;36748;37.428;-121.972;2023-03-21T05:43:57;1.52;;;1.00;;
50779;SDS011;36748;37.428;-121.972;2023-03-21T05:46:24;2.97;;;1.20;;
50779;SDS011;36748;37.428;-121.972;2023-03-21T05:48:51;1.88;;;1.13;;
50779;SDS011;36748;37.428;-121.972;2023-03-21T05:51:17;2.22;;;0.88;;
50779;SDS011;36748;37.428;-121.972;2023-03-21T05:53:43;2.67;;;1.10;;
50779;SDS011;36748;37.428;-121.972;2023-03-21T05:56:09;1.48;;;0.95;;
50779;SDS011;36748;37.428;-121.972;2023-03-21T05:58:36;1.90;;;0.93;;
50779;SDS011;36748;37.428;-121.972;2023-03-21T06:01:02;2.58;;;1.25;;
50779;SDS011;36748;37.428;-121.972;2023-03-21T06:03:28;1.92;;;1.15;;
50779;SDS011;36748;37.428;-121.972;2023-03-21T06:05:54;2.63;;;1.40;;
50779;SDS011;36748;37.428;-121.972;2023-03-21T06:08:21;2.47;;;1.20;;
50779;SDS011;36748;37.428;-121.972;2023-03-21T06:10:47;1.95;;;1.00;;
50779;SDS011;36748;37.428;-121.972;2023-03-21T06:13:13;1.40;;;1.00;;
50779;SDS011;36748;37.428;-121.972;2023-03-21T06:15:40;2.17;;;1.10;;
50779;SDS011;36748;37.428;-121.972;2023-03-21T06:18:06;3.00;;;1.20;;
50779;SDS011;36748;37.428;-121.972;2023-03-21T06:20:32;2.58;;;0.85;;
50779;SDS011;36748;37.428;-121.972;2023-03-21T06:22:58;1.85;;;0.93;;
50779;SDS011;36748;37.428;-121.972;2023-03-21T06:25:25;2.35;;;1.17;;
50779;SDS011;36748;37.428;-121.972;2023-03-21T06:27:51;1.70;;;0.98;;
50779;SDS011;36748;37.428;-121.972;2023-03-21T06:30:17;2.92;;;1.00;;
50779;SDS011;36748;37.428;-121.972;2023-03-21T06:32:43;1.55;;;1.00;;
50779;SDS011;36748;37.428;-121.972;2023-03-21T06:35:10;2.88;;;1.35;;
50779;SDS011;36748;37.428;-121.972;2023-03-21T06:37:36;1.75;;;0.90;;
50779;SDS011;36748;37.428;-121.972;2023-03-21T06:40:03;1.83;;;0.95;;
50779;SDS011;36748;37.428;-121.972;2023-03-21T06:42:30;2.30;;;1.02;;
50779;SDS011;36748;37.428;-121.972;2023-03-21T06:44:56;1.80;;;0.95;;
50779;SDS011;36748;37.428;-121.972;2023-03-21T06:47:23;1.55;;;0.80;;
50779;SDS011;36748;37.428;-121.972;2023-03-21T06:49:49;1.73;;;0.80;;
50779;SDS011;36748;37.428;-121.972;2023-03-21T06:52:15;2.78;;;0.95;;
50779;SDS011;36748;37.428;-121.972;2023-03-21T06:54:42;1.60;;;0.82;;
50779;SDS011;36748;37.428;-121.972;2023-03-21T06:57:08;2.08;;;0.93;;
50779;SDS011;36748;37.428;-121.972;2023-03-21T06:59:34;2.65;;;1.10;;
50779;SDS011;36748;37.428;-121.972;2023-03-21T07:02:01;2.50;;;1.00;;
50779;SDS011;36748;37.428;-121.972;2023-03-21T07:04:27;1.52;;;0.90;;
50779;SDS011;36748;37.428;-121.972;2023-03-21T07:06:53;3.05;;;1.13;;
50779;SDS011;36748;37.428;-121.972;2023-03-21T07:09:20;2.05;;;1.27;;
50779;SDS011;36748;37.428;-121.972;2023-03-21T07:11:48;1.33;;;0.80;;
50779;SDS011;36748;37.428;-121.972;2023-03-21T07:14:17;3.85;;;0.82;;
50779;SDS011;36748;37.428;-121.972;2023-03-21T07:16:44;1.33;;;0.90;;
50779;SDS011;36748;37.428;-121.972;2023-03-21T07:19:10;1.02;;;0.93;;
50779;SDS011;36748;37.428;-121.972;2023-03-21T07:21:36;1.60;;;0.88;;
50779;SDS011;36748;37.428;-121.972;2023-03-21T07:24:03;2.55;;;1.10;;
50779;SDS011;36748;37.428;-121.972;2023-03-21T07:26:29;2.25;;;1.15;;
50779;SDS011;36748;37.428;-121.972;2023-03-21T07:28:55;1.70;;;1.10;;
50779;SDS011;36748;37.428;-121.972;2023-03-21T07:31:21;3.08;;;1.00;;
50779;SDS011;36748;37.428;-121.972;2023-03-21T07:33:51;1.70;;;0.98;;
50779;SDS011;36748;37.428;-121.972;2023-03-21T07:36:17;2.50;;;1.10;;
50779;SDS011;36748;37.428;-121.972;2023-03-21T07:38:44;1.85;;;0.93;;
50779;SDS011;36748;37.428;-121.972;2023-03-21T07:41:10;3.00;;;0.90;;
50779;SDS011;36748;37.428;-121.972;2023-03-21T07:43:37;1.40;;;0.90;;
50779;SDS011;36748;37.428;-121.972;2023-03-21T07:46:03;2.63;;;1.48;;
50779;SDS011;36748;37.428;-121.972;2023-03-21T07:48:30;1.95;;;0.98;;
50779;SDS011;36748;37.428;-121.972;2023-03-21T07:50:56;3.80;;;1.00;;
50779;SDS011;36748;37.428;-121.972;2023-03-21T07:53:22;1.48;;;0.88;;
50779;SDS011;36748;37.428;-121.972;2023-03-21T07:55:50;1.52;;;0.95;;
50779;SDS011;36748;37.428;-121.972;2023-03-21T07:58:17;1.70;;;1.10;;
50779;SDS011;36748;37.428;-121.972;2023-03-21T08:00:43;1.13;;;0.93;;
50779;SDS011;36748;37.428;-121.972;2023-03-21T08:03:09;1.70;;;0.90;;
50779;SDS011;36748;37.428;-121.972;2023-03-21T08:05:36;2.05;;;0.93;;
50779;SDS011;36748;37.428;-121.972;2023-03-21T08:08:03;1.77;;;0.80;;
50779;SDS011;36748;37.428;-121.972;2023-03-21T08:10:30;4.70;;;0.90;;
50779;SDS011;36748;37.428;-121.972;2023-03-21T08:12:56;1.85;;;0.93;;
50779;SDS011;36748;37.428;-121.972;2023-03-21T08:15:22;3.67;;;1.02;;
50779;SDS011;36748;37.428;-121.972;2023-03-21T08:17:48;1.83;;;0.90;;
50779;SDS011;36748;37.428;-121.972;2023-03-21T08:20:16;2.42;;;1.23;;
50779;SDS011;36748;37.428;-121.972;2023-03-21T08:22:45;2.47;;;1.00;;
50779;SDS011;36748;37.428;-121.972;2023-03-21T08:25:13;1.42;;;0.75;;
50779;SDS011;36748;37.428;-121.972;2023-03-21T08:27:41;2.75;;;0.90;;
50779;SDS011;36748;37.428;-121.972;2023-03-21T08:30:08;0.95;;;0.70;;
50779;SDS011;36748;37.428;-121.972;2023-03-21T08:32:36;1.55;;;1.00;;
50779;SDS011;36748;37.428;-121.972;2023-03-21T08:35:04;1.85;;;0.70;;
50779;SDS011;36748;37.428;-121.972;2023-03-21T08:37:37;2.03;;;0.82;;
50779;SDS011;36748;37.428;-121.972;2023-03-21T08:40:04;1.08;;;0.70;;
50779;SDS011;36748;37.428;-121.972;2023-03-21T08:42:39;1.98;;;0.90;;
50779;SDS011;36748;37.428;-121.972;2023-03-21T08:45:05;2.67;;;1.17;;
50779;SDS011;36748;37.428;-121.972;2023-03-21T08:47:33;0.82;;;0.80;;
50779;SDS011;36748;37.428;-121.972;2023-03-21T08:49:59;1.55;;;1.02;;
50779;SDS011;36748;37.428;-121.972;2023-03-21T08:52:25;1.00;;;0.90;;
50779;SDS011;36748;37.428;-121.972;2023-03-21T08:54:52;1.20;;;0.95;;
50779;SDS011;36748;37.428;-121.972;2023-03-21T08:57:19;1.23;;;0.90;;
50779;SDS011;36748;37.428;-121.972;2023-03-21T08:59:45;2.08;;;1.00;;
50779;SDS011;36748;37.428;-121.972;2023-03-21T09:02:15;2.03;;;1.05;;
50779;SDS011;36748;37.428;-121.972;2023-03-21T09:04:42;1.30;;;0.90;;
50779;SDS011;36748;37.428;-121.972;2023-03-21T09:07:09;2.80;;;0.90;;
50779;SDS011;36748;37.428;-121.972;2023-03-21T09:09:37;3.38;;;0.90;;
50779;SDS011;36748;37.428;-121.972;2023-03-21T09:12:03;1.92;;;1.00;;
50779;SDS011;36748;37.428;-121.972;2023-03-21T09:14:30;1.67;;;0.90;;
50779;SDS011;36748;37.428;-121.972;2023-03-21T09:16:57;2.38;;;0.52;;
50779;SDS011;36748;37.428;-121.972;2023-03-21T09:19:23;2.30;;;0.93;;
50779;SDS011;36748;37.428;-121.972;2023-03-21T09:21:50;1.63;;;1.00;;
50779;SDS011;36748;37.428;-121.972;2023-03-21T09:24:18;1.25;;;0.90;;
50779;SDS011;36748;37.428;-121.972;2023-03-21T09:26:44;1.67;;;1.08;;
50779;SDS011;36748;37.428;-121.972;2023-03-21T09:29:15;1.48;;;0.98;;
50779;SDS011;36748;37.428;-121.972;2023-03-21T09:31:43;1.10;;;0.80;;
50779;SDS011;36748;37.428;-121.972;2023-03-21T09:34:11;1.38;;;0.82;;
50779;SDS011;36748;37.428;-121.972;2023-03-21T09:36:39;2.33;;;1.08;;
50779;SDS011;36748;37.428;-121.972;2023-03-21T09:39:08;2.95;;;1.20;;
50779;SDS011;36748;37.428;-121.972;2023-03-21T09:49:34;2.15;;;1.13;;
50779;SDS011;36748;37.428;-121.972;2023-03-21T09:52:10;1.58;;;0.95;;
50779;SDS011;36748;37.428;-121.972;2023-03-21T09:54:42;1.38;;;0.82;;
50779;SDS011;36748;37.428;-121.972;2023-03-21T09:57:15;1.77;;;0.70;;
50779;SDS011;36748;37.428;-121.972;2023-03-21T09:59:49;1.77;;;1.00;;
50779;SDS011;36748;37.428;-121.972;2023-03-21T10:05:11;1.33;;;0.70;;
50779;SDS011;36748;37.428;-121.972;2023-03-21T10:07:44;0.93;;;0.70;;
50779;SDS011;36748;37.428;-121.972;2023-03-21T10:10:15;1.45;;;0.73;;
50779;SDS011;36748;37.428;-121.972;2023-03-21T10:12:45;1.60;;;0.70;;
50779;SDS011;36748;37.428;-121.972;2023-03-21T10:15:17;1.30;;;0.70;;
50779;SDS011;36748;37.428;-121.972;2023-03-21T10:18:04;2.17;;;0.82;;
50779;SDS011;36748;37.428;-121.972;2023-03-21T10:20:33;2.03;;;0.98;;
50779;SDS011;36748;37.428;-121.972;2023-03-21T10:23:03;2.05;;;0.98;;
50779;SDS011;36748;37.428;-121.972;2023-03-21T10:28:01;1.85;;;0.70;;
50779;SDS011;36748;37.428;-121.972;2023-03-21T10:30:37;1.45;;;0.80;;
50779;SDS011;36748;37.428;-121.972;2023-03-21T10:33:06;0.80;;;0.77;;
50779;SDS011;36748;37.428;-121.972;2023-03-21T10:35:36;0.90;;;0.70;;
50779;SDS011;36748;37.428;-121.972;2023-03-21T10:38:04;1.13;;;0.73;;
50779;SDS011;36748;37.428;-121.972;2023-03-21T10:40:31;0.93;;;0.70;;
50779;SDS011;36748;37.428;-121.972;2023-03-21T10:43:14;1.35;;;0.75;;
50779;SDS011;36748;37.428;-121.972;2023-03-21T10:45:40;2.22;;;0.82;;
50779;SDS011;36748;37.428;-121.972;2023-03-21T10:48:07;5.68;;;0.90;;
50779;SDS011;36748;37.428;-121.972;2023-03-21T10:50:33;2.55;;;0.60;;
50779;SDS011;36748;37.428;-121.972;2023-03-21T10:53:00;1.38;;;0.90;;
50779;SDS011;36748;37.428;-121.972;2023-03-21T10:55:33;1.70;;;1.05;;
50779;SDS011;36748;37.428;-121.972;2023-03-21T10:58:04;0.90;;;0.70;;
50779;SDS011;36748;37.428;-121.972;2023-03-21T11:00:33;2.30;;;0.80;;
50779;SDS011;36748;37.428;-121.972;2023-03-21T11:03:02;1.77;;;1.00;;
50779;SDS011;36748;37.428;-121.972;2023-03-21T11:08:10;1.48;;;0.75;;
50779;SDS011;36748;37.428;-121.972;2023-03-21T11:13:18;1.35;;;0.70;;
50779;SDS011;36748;37.428;-121.972;2023-03-21T11:15:53;1.33;;;0.77;;
50779;SDS011;36748;37.428;-121.972;2023-03-21T11:18:26;1.38;;;0.65;;
50779;SDS011;36748;37.428;-121.972;2023-03-21T11:20:57;0.98;;;0.63;;
50779;SDS011;36748;37.428;-121.972;2023-03-21T11:23:29;0.77;;;0.73;;
50779;SDS011;36748;37.428;-121.972;2023-03-21T11:26:00;2.25;;;0.82;;
50779;SDS011;36748;37.428;-121.972;2023-03-21T11:28:38;2.35;;;0.82;;
50779;SDS011;36748;37.428;-121.972;2023-03-21T11:31:06;1.70;;;1.00;;
50779;SDS011;36748;37.428;-121.972;2023-03-21T11:33:34;2.88;;;0.70;;
50779;SDS011;36748;37.428;-121.972;2023-03-21T11:36:03;1.38;;;0.65;;
50779;SDS011;36748;37.428;-121.972;2023-03-21T11:38:33;2.67;;;0.95;;
50779;SDS011;36748;37.428;-121.972;2023-03-21T11:41:02;1.42;;;0.63;;
50779;SDS011;36748;37.428;-121.972;2023-03-21T11:43:31;1.58;;;0.80;;
50779;SDS011;36748;37.428;-121.972;2023-03-21T11:46:06;0.93;;;0.57;;
50779;SDS011;36748;37.428;-121.972;2023-03-21T11:48:38;1.02;;;0.80;;
50779;SDS011;36748;37.428;-121.972;2023-03-21T11:51:21;1.88;;;0.60;;
50779;SDS011;36748;37.428;-121.972;2023-03-21T11:54:02;1.27;;;0.73;;
50779;SDS011;36748;37.428;-121.972;2023-03-21T11:56:51;1.30;;;0.98;;
50779;SDS011;36748;37.428;-121.972;2023-03-21T11:59:32;2.10;;;0.73;;
50779;SDS011;36748;37.428;-121.972;2023-03-21T12:02:13;2.28;;;0.70;;
50779;SDS011;36748;37.428;-121.972;2023-03-21T12:04:58;1.08;;;0.57;;
50779;SDS011;36748;37.428;-121.972;2023-03-21T12:15:35;1.85;;;0.70;;
50779;SDS011;36748;37.428;-121.972;2023-03-21T12:37:26;1.27;;;0.50;;
50779;SDS011;36748;37.428;-121.972;2023-03-21T12:39:54;1.23;;;0.55;;
50779;SDS011;36748;37.428;-121.972;2023-03-21T12:45:30;5.47;;;0.90;;
50779;SDS011;36748;37.428;-121.972;2023-03-21T12:48:13;3.42;;;0.43;;
50779;SDS011;36748;37.428;-121.972;2023-03-21T12:50:41;4.22;;;0.60;;
50779;SDS011;36748;37.428;-121.972;2023-03-21T12:56:14;2.45;;;0.70;;
50779;SDS011;36748;37.428;-121.972;2023-03-21T12:58:48;4.15;;;1.02;;
50779;SDS011;36748;37.428;-121.972;2023-03-21T13:01:23;4.47;;;1.13;;
50779;SDS011;36748;37.428;-121.972;2023-03-21T13:04:06;2.95;;;1.30;;
50779;SDS011;36748;37.428;-121.972;2023-03-21T13:06:51;2.35;;;1.60;;
50779;SDS011;36748;37.428;-121.972;2023-03-21T13:09:38;4.65;;;2.38;;
50779;SDS011;36748;37.428;-121.972;2023-03-21T13:12:23;3.50;;;2.58;;
50779;SDS011;36748;37.428;-121.972;2023-03-21T13:15:25;3.42;;;2.10;;
50779;SDS011;36748;37.428;-121.972;2023-03-21T13:23:35;8.45;;;2.28;;
50779;SDS011;36748;37.428;-121.972;2023-03-21T13:26:03;3.80;;;2.10;;
50779;SDS011;36748;37.428;-121.972;2023-03-21T13:28:35;5.18;;;2.03;;
50779;SDS011;36748;37.428;-121.972;2023-03-21T13:31:21;4.50;;;2.20;;
50779;SDS011;36748;37.428;-121.972;2023-03-21T13:33:52;2.70;;;1.80;;
50779;SDS011;36748;37.428;-121.972;2023-03-21T13:36:23;4.00;;;1.95;;
50779;SDS011;36748;37.428;-121.972;2023-03-21T13:38:51;3.00;;;2.05;;
50779;SDS011;36748;37.428;-121.972;2023-03-21T13:41:21;2.55;;;1.80;;
50779;SDS011;36748;37.428;-121.972;2023-03-21T13:48:58;1.92;;;1.70;;
50779;SDS011;36748;37.428;-121.972;2023-03-21T13:54:02;3.63;;;1.92;;
50779;SDS011;36748;37.428;-121.972;2023-03-21T13:59:34;2.47;;;1.90;;
50779;SDS011;36748;37.428;-121.972;2023-03-21T14:04:38;2.30;;;1.52;;
50779;SDS011;36748;37.428;-121.972;2023-03-21T14:07:25;3.28;;;2.20;;
50779;SDS011;36748;37.428;-121.972;2023-03-21T14:09:57;3.75;;;2.10;;
50779;SDS011;36748;37.428;-121.972;2023-03-21T14:12:29;3.65;;;1.60;;
50779;SDS011;36748;37.428;-121.972;2023-03-21T14:15:07;6.38;;;1.90;;
50779;SDS011;36748;37.428;-121.972;2023-03-21T14:17:57;2.45;;;1.70;;
50779;SDS011;36748;37.428;-121.972;2023-03-21T14:20:29;2.22;;;1.52;;
50779;SDS011;36748;37.428;-121.972;2023-03-21T14:22:57;4.35;;;1.60;;
50779;SDS011;36748;37.428;-121.972;2023-03-21T14:25:24;3.20;;;1.42;;
50779;SDS011;36748;37.428;-121.972;2023-03-21T14:27:58;2.53;;;1.70;;
50779;SDS011;36748;37.428;-121.972;2023-03-21T14:30:26;4.93;;;1.80;;
50779;SDS011;36748;37.428;-121.972;2023-03-21T14:32:55;3.22;;;1.55;;
50779;SDS011;36748;37.428;-121.972;2023-03-21T14:35:24;2.53;;;1.80;;
50779;SDS011;36748;37.428;-121.972;2023-03-21T14:37:51;1.58;;;1.48;;
50779;SDS011;36748;37.428;-121.972;2023-03-21T14:40:21;2.60;;;1.30;;
50779;SDS011;36748;37.428;-121.972;2023-03-21T14:42:49;5.13;;;1.60;;
50779;SDS011;36748;37.428;-121.972;2023-03-21T14:45:19;5.80;;;1.90;;
50779;SDS011;36748;37.428;-121.972;2023-03-21T14:56:30;2.90;;;1.13;;
50779;SDS011;36748;37.428;-121.972;2023-03-21T14:58:47;2.10;;;1.40;;
50779;SDS011;36748;37.428;-121.972;2023-03-21T15:01:31;4.22;;;1.85;;
50779;SDS011;36748;37.428;-121.972;2023-03-21T15:03:59;3.10;;;1.30;;
50779;SDS011;36748;37.428;-121.972;2023-03-21T15:06:27;3.17;;;1.13;;
50779;SDS011;36748;37.428;-121.972;2023-03-21T15:08:55;3.60;;;1.50;;
50779;SDS011;36748;37.428;-121.972;2023-03-21T15:11:33;1.80;;;1.13;;
50779;SDS011;36748;37.428;-121.972;2023-03-21T15:14:04;2.30;;;1.25;;
50779;SDS011;36748;37.428;-121.972;2023-03-21T15:16:34;2.42;;;1.45;;
50779;SDS011;36748;37.428;-121.972;2023-03-21T15:19:00;1.40;;;1.10;;
50779;SDS011;36748;37.428;-121.972;2023-03-21T15:21:39;1.55;;;1.00;;
50779;SDS011;36748;37.428;-121.972;2023-03-21T15:24:16;1.60;;;1.30;;
50779;SDS011;36748;37.428;-121.972;2023-03-21T15:26:46;1.35;;;1.20;;
50779;SDS011;36748;37.428;-121.972;2023-03-21T15:29:14;3.28;;;1.33;;
50779;SDS011;36748;37.428;-121.972;2023-03-21T15:34:22;2.00;;;1.17;;
50779;SDS011;36748;37.428;-121.972;2023-03-21T15:36:56;1.58;;;1.00;;
50779;SDS011;36748;37.428;-121.972;2023-03-21T15:39:26;2.30;;;1.20;;
50779;SDS011;36748;37.428;-121.972;2023-03-21T15:42:01;1.88;;;1.05;;
50779;SDS011;36748;37.428;-121.972;2023-03-21T15:44:27;3.05;;;1.10;;
50779;SDS011;36748;37.428;-121.972;2023-03-21T15:46:54;3.05;;;1.08;;
50779;SDS011;36748;37.428;-121.972;2023-03-21T15:52:02;2.33;;;1.10;;
50779;SDS011;36748;37.428;-121.972;2023-03-21T15:54:32;1.02;;;0.75;;
50779;SDS011;36748;37.428;-121.972;2023-03-21T15:57:02;1.02;;;0.93;;
50779;SDS011;36748;37.428;-121.972;2023-03-21T15:59:42;1.35;;;0.90;;
50779;SDS011;36748;37.428;-121.972;2023-03-21T16:02:15;1.38;;;0.82;;
50779;SDS011;36748;37.428;-121.972;2023-03-21T16:04:53;1.08;;;0.75;;
50779;SDS011;36748;37.428;-121.972;2023-03-21T16:07:22;2.40;;;1.08;;
50779;SDS011;36748;37.428;-121.972;2023-03-21T16:09:49;1.92;;;1.20;;
50779;SDS011;36748;37.428;-121.972;2023-03-21T16:12:23;1.63;;;1.00;;
50779;SDS011;36748;37.428;-121.972;2023-03-21T16:14:49;2.20;;;1.10;;
50779;SDS011;36748;37.428;-121.972;2023-03-21T16:17:26;1.23;;;0.82;;
50779;SDS011;36748;37.428;-121.972;2023-03-21T16:19:57;2.33;;;1.20;;
50779;SDS011;36748;37.428;-121.972;2023-03-21T16:22:24;1.02;;;0.90;;
50779;SDS011;36748;37.428;-121.972;2023-03-21T16:24:51;3.03;;;1.08;;
50779;SDS011;36748;37.428;-121.972;2023-03-21T16:27:18;1.10;;;0.88;;
50779;SDS011;36748;37.428;-121.972;2023-03-21T16:29:44;1.08;;;0.80;;